createdAt,value
2022-10-14T00:01:13.106Z,83.80
2022-10-14T00:03:43.148Z,83.70
2022-10-14T00:06:13.152Z,83.50
2022-10-14T00:08:42.346Z,83.60
2022-10-14T00:11:14.110Z,83.60
2022-10-14T00:13:42.241Z,83.60
2022-10-14T00:16:18.376Z,83.60
2022-10-14T00:18:47.956Z,83.50
2022-10-14T00:21:16.644Z,83.70
2022-10-14T00:23:44.906Z,83.70
2022-10-14T00:26:18.487Z,83.80
2022-10-14T00:28:46.796Z,83.80
2022-10-14T00:31:15.478Z,84.00
2022-10-14T00:33:43.862Z,83.90
2022-10-14T00:36:15.491Z,83.90
2022-10-14T00:38:45.362Z,83.90
2022-10-14T00:41:15.296Z,83.90
2022-10-14T00:43:55.939Z,83.80
2022-10-14T00:46:24.597Z,83.90
2022-10-14T00:48:53.266Z,83.90
2022-10-14T00:51:23.062Z,84.00
2022-10-14T00:53:51.893Z,83.90
2022-10-14T00:56:25.555Z,84.10
2022-10-14T00:58:54.509Z,84.00
2022-10-14T01:01:22.851Z,84.10
2022-10-14T01:03:50.998Z,84.20
2022-10-14T01:06:31.933Z,84.10
2022-10-14T01:09:05.021Z,84.10
2022-10-14T01:12:16.195Z,84.20
2022-10-14T01:14:53.855Z,84.10
2022-10-14T01:17:36.033Z,84.20
2022-10-14T01:20:43.634Z,84.20
2022-10-14T01:23:42.427Z,84.20
2022-10-14T01:26:30.438Z,84.10
2022-10-14T01:29:12.888Z,84.20
2022-10-14T01:31:47.493Z,84.10
2022-10-14T01:34:21.695Z,84.10
2022-10-14T01:36:53.776Z,84.20
2022-10-14T01:39:26.288Z,84.10
2022-10-14T01:41:58.569Z,84.10
2022-10-14T01:44:30.181Z,84.00
2022-10-14T01:47:02.282Z,84.00
2022-10-14T01:49:36.656Z,84.00
2022-10-14T01:52:10.114Z,84.00
2022-10-14T01:54:42.612Z,84.00
2022-10-14T01:57:15.282Z,84.00
2022-10-14T01:59:45.439Z,84.00
2022-10-14T02:02:15.236Z,84.00
2022-10-14T02:04:43.385Z,84.00
2022-10-14T02:07:16.490Z,84.10
2022-10-14T02:09:54.224Z,84.10
2022-10-14T02:12:35.049Z,84.20
2022-10-14T02:15:12.570Z,84.20
2022-10-14T02:17:50.115Z,84.20
2022-10-14T02:20:30.338Z,84.20
2022-10-14T02:23:01.305Z,84.20
2022-10-14T02:25:32.796Z,84.20
2022-10-14T02:28:02.965Z,84.20
2022-10-14T02:30:33.949Z,84.30
2022-10-14T02:33:05.462Z,84.30
2022-10-14T02:35:35.702Z,84.30
2022-10-14T02:38:04.795Z,84.40
2022-10-14T02:40:38.712Z,84.30
2022-10-14T02:43:10.074Z,84.50
2022-10-14T02:45:39.101Z,84.40
2022-10-14T02:48:09.259Z,84.50
2022-10-14T02:50:37.717Z,84.50
2022-10-14T02:53:06.087Z,84.60
2022-10-14T02:55:34.197Z,84.60
2022-10-14T02:58:02.293Z,84.50
2022-10-14T03:00:30.425Z,84.70
2022-10-14T03:02:58.503Z,84.60
2022-10-14T03:05:28.110Z,84.50
2022-10-14T03:07:56.474Z,84.50
2022-10-14T03:10:24.653Z,84.40
2022-10-14T03:12:52.890Z,84.40
2022-10-14T03:15:20.990Z,84.30
2022-10-14T03:17:49.100Z,84.30
2022-10-14T03:20:17.491Z,84.40
2022-10-14T03:22:46.957Z,84.30
2022-10-14T03:25:15.135Z,84.40
2022-10-14T03:27:43.555Z,84.50
2022-10-14T03:30:12.359Z,84.50
2022-10-14T03:32:40.420Z,84.60
2022-10-14T03:35:10.368Z,84.60
2022-10-14T03:37:38.479Z,84.50
2022-10-14T03:40:11.827Z,84.50
2022-10-14T03:42:40.011Z,84.60
2022-10-14T03:45:09.341Z,84.60
2022-10-14T03:47:37.488Z,84.60
2022-10-14T03:50:06.815Z,84.50
2022-10-14T03:52:34.909Z,84.60
2022-10-14T03:55:03.186Z,84.70
2022-10-14T03:57:32.755Z,84.70
2022-10-14T04:00:00.898Z,84.70
2022-10-14T04:02:29.006Z,84.70
2022-10-14T04:05:00.753Z,84.70
2022-10-14T04:07:29.352Z,84.70
2022-10-14T04:09:57.477Z,84.70
2022-10-14T04:12:25.609Z,84.70
2022-10-14T04:14:56.857Z,84.70
2022-10-14T04:17:25.134Z,84.70
2022-10-14T04:19:53.584Z,84.70
2022-10-14T04:22:23.276Z,84.70
2022-10-14T04:24:51.887Z,84.70
2022-10-14T04:27:20.071Z,84.70
2022-10-14T04:29:48.192Z,84.80
2022-10-14T04:32:17.843Z,84.80
2022-10-14T04:34:45.943Z,84.80
2022-10-14T04:37:14.057Z,84.80
2022-10-14T04:39:42.256Z,84.80
2022-10-14T04:42:10.409Z,84.70
2022-10-14T04:44:38.535Z,84.80
2022-10-14T04:47:06.754Z,84.80
2022-10-14T04:49:36.253Z,84.80
2022-10-14T04:52:04.361Z,84.80
2022-10-14T04:54:32.509Z,84.90
2022-10-14T04:57:00.644Z,84.80
2022-10-14T04:59:28.755Z,84.70
2022-10-14T05:01:57.014Z,84.80
2022-10-14T05:04:25.217Z,84.80
2022-10-14T05:06:54.673Z,84.80
2022-10-14T05:09:22.843Z,84.90
2022-10-14T05:11:51.081Z,84.90
2022-10-14T05:14:19.276Z,84.80
2022-10-14T05:16:47.378Z,84.90
2022-10-14T05:19:15.594Z,85.00
2022-10-14T05:21:43.730Z,85.10
2022-10-14T05:24:13.284Z,85.00
2022-10-14T05:26:41.357Z,85.00
2022-10-14T05:29:10.390Z,85.00
2022-10-14T05:31:38.541Z,85.10
2022-10-14T05:34:06.824Z,85.00
2022-10-14T05:36:34.931Z,85.10
2022-10-14T05:39:03.097Z,85.10
2022-10-14T05:41:32.802Z,85.10
2022-10-14T05:44:00.937Z,85.10
2022-10-14T05:46:29.045Z,85.10
2022-10-14T05:48:57.682Z,85.10
2022-10-14T05:51:26.305Z,85.00
2022-10-14T05:53:54.622Z,85.00
2022-10-14T05:56:22.773Z,84.90
2022-10-14T05:58:53.071Z,85.00
2022-10-14T06:01:22.114Z,85.00
2022-10-14T06:03:52.416Z,85.00
2022-10-14T06:06:23.251Z,85.10
2022-10-14T06:08:56.261Z,84.90
2022-10-14T06:11:24.413Z,84.90
2022-10-14T06:13:54.332Z,84.90
2022-10-14T06:16:22.467Z,84.80
2022-10-14T06:18:54.232Z,84.80
2022-10-14T06:21:22.978Z,84.80
2022-10-14T06:23:51.460Z,84.80
2022-10-14T06:26:19.675Z,84.70
2022-10-14T06:28:47.985Z,84.60
2022-10-14T06:31:20.910Z,84.60
2022-10-14T06:33:49.079Z,84.50
2022-10-14T06:36:17.190Z,84.50
2022-10-14T06:38:48.540Z,84.40
2022-10-14T06:41:16.646Z,84.30
2022-10-14T06:43:44.727Z,84.30
2022-10-14T06:46:12.813Z,84.30
2022-10-14T06:48:44.767Z,84.20
2022-10-14T06:51:14.971Z,84.20
2022-10-14T06:53:43.706Z,84.10
2022-10-14T06:56:12.662Z,84.00
2022-10-14T06:58:40.820Z,84.10
2022-10-14T07:01:09.658Z,84.00
2022-10-14T07:03:39.098Z,84.10
2022-10-14T07:06:09.999Z,84.10
2022-10-14T07:08:38.171Z,84.00
2022-10-14T07:11:06.961Z,84.00
2022-10-14T07:13:35.540Z,83.90
2022-10-14T07:16:03.732Z,83.80
2022-10-14T07:18:32.049Z,83.80
2022-10-14T07:21:03.841Z,83.90
2022-10-14T07:23:33.427Z,83.80
2022-10-14T07:26:01.876Z,83.90
2022-10-14T07:28:30.302Z,83.80
2022-10-14T07:31:00.288Z,83.80
2022-10-14T07:33:28.623Z,83.80
2022-10-14T07:35:56.804Z,83.80
2022-10-14T07:38:24.972Z,83.90
2022-10-14T07:41:02.261Z,83.70
2022-10-14T07:43:31.025Z,83.90
2022-10-14T07:46:02.763Z,84.00
2022-10-14T07:48:32.590Z,83.90
2022-10-14T07:51:12.979Z,84.00
2022-10-14T07:53:41.150Z,83.90
2022-10-14T07:56:10.687Z,83.90
2022-10-14T07:58:43.576Z,83.80
2022-10-14T08:01:12.609Z,83.70
2022-10-14T08:03:40.831Z,83.60
2022-10-14T08:06:09.359Z,83.40
2022-10-14T08:08:37.541Z,83.40
2022-10-14T08:11:08.974Z,83.30
2022-10-14T08:13:41.937Z,83.20
2022-10-14T08:16:15.755Z,83.10
2022-10-14T08:18:44.048Z,83.00
2022-10-14T08:21:12.358Z,82.90
2022-10-14T08:23:40.496Z,82.80
2022-10-14T08:26:19.784Z,82.80
2022-10-14T08:28:49.847Z,82.60
2022-10-14T08:31:18.493Z,82.70
2022-10-14T08:33:46.811Z,82.40
2022-10-14T08:36:15.416Z,82.10
2022-10-14T08:38:43.565Z,81.70
2022-10-14T08:41:26.589Z,81.40
2022-10-14T08:44:10.425Z,81.30
2022-10-14T08:46:41.728Z,80.90
2022-10-14T08:49:17.366Z,80.70
2022-10-14T08:51:49.950Z,80.70
2022-10-14T08:54:25.756Z,80.60
2022-10-14T08:56:54.476Z,80.40
2022-10-14T08:59:25.913Z,80.40
2022-10-14T09:01:58.655Z,80.30
2022-10-14T09:04:26.860Z,80.30
2022-10-14T09:06:56.741Z,80.50
2022-10-14T09:09:29.804Z,80.20
2022-10-14T09:12:01.174Z,80.20
2022-10-14T09:14:35.564Z,80.30
2022-10-14T09:17:08.568Z,80.20
2022-10-14T09:19:43.051Z,80.20
2022-10-14T09:22:14.537Z,79.80
2022-10-14T09:24:45.396Z,79.50
2022-10-14T09:27:17.196Z,79.50
2022-10-14T09:29:49.778Z,79.30
2022-10-14T09:32:29.555Z,79.40
2022-10-14T09:34:59.478Z,79.20
2022-10-14T09:37:29.603Z,78.80
2022-10-14T09:40:00.963Z,78.70
2022-10-14T09:42:37.384Z,78.80
2022-10-14T09:45:11.748Z,78.50
2022-10-14T09:47:49.309Z,78.70
2022-10-14T09:50:24.579Z,78.50
2022-10-14T09:52:59.993Z,78.50
2022-10-14T09:55:28.658Z,78.40
2022-10-14T09:58:08.914Z,78.30
2022-10-14T10:00:39.253Z,78.30
2022-10-14T10:03:09.933Z,78.20
2022-10-14T10:05:40.680Z,77.70
2022-10-14T10:08:17.769Z,77.20
2022-10-14T10:11:03.630Z,77.00
2022-10-14T10:13:41.598Z,76.30
2022-10-14T10:16:23.451Z,76.80
2022-10-14T10:18:52.871Z,76.80
2022-10-14T10:21:25.794Z,76.60
2022-10-14T10:23:57.229Z,76.50
2022-10-14T10:26:27.332Z,76.20
2022-10-14T10:28:58.056Z,75.90
2022-10-14T10:31:42.148Z,75.60
2022-10-14T10:34:40.529Z,75.30
2022-10-14T10:37:25.207Z,75.00
2022-10-14T10:40:09.670Z,75.10
2022-10-14T10:42:44.845Z,74.80
2022-10-14T10:45:17.962Z,75.00
2022-10-14T10:47:56.607Z,74.70
2022-10-14T10:50:33.952Z,74.50
2022-10-14T10:53:27.280Z,74.20
2022-10-14T10:56:06.062Z,74.40
2022-10-14T10:58:44.199Z,74.30
2022-10-14T11:01:26.274Z,74.00
2022-10-14T11:04:14.155Z,73.90
2022-10-14T11:07:01.480Z,73.90
2022-10-14T11:09:52.665Z,74.00
2022-10-14T11:12:25.989Z,73.50
2022-10-14T11:15:20.052Z,73.60
2022-10-14T11:17:52.489Z,73.50
2022-10-14T11:20:33.822Z,73.60
2022-10-14T11:23:21.544Z,73.60
2022-10-14T11:25:56.498Z,73.20
2022-10-14T11:28:33.120Z,72.90
2022-10-14T11:31:07.795Z,73.20
2022-10-14T11:33:55.390Z,73.20
2022-10-14T11:36:34.606Z,73.30
2022-10-14T11:39:28.723Z,73.40
2022-10-14T11:42:13.800Z,73.10
2022-10-14T11:44:43.505Z,73.20
2022-10-14T11:47:18.658Z,73.00
2022-10-14T11:49:53.895Z,73.00
2022-10-14T11:52:28.812Z,72.80
2022-10-14T11:55:02.911Z,72.60
2022-10-14T11:57:35.722Z,72.90
2022-10-14T12:00:06.506Z,73.00
2022-10-14T12:02:42.035Z,72.50
2022-10-14T12:05:17.991Z,72.70
2022-10-14T12:08:08.584Z,72.30
2022-10-14T12:10:42.825Z,72.30
2022-10-14T12:13:15.250Z,72.10
2022-10-14T12:15:48.332Z,72.20
2022-10-14T12:18:16.681Z,72.00
2022-10-14T12:20:50.393Z,72.00
2022-10-14T12:23:30.109Z,71.80
2022-10-14T12:26:04.885Z,71.60
2022-10-14T12:28:34.712Z,71.70
2022-10-14T12:31:23.302Z,71.00
2022-10-14T12:34:18.960Z,71.30
2022-10-14T12:36:50.706Z,71.40
2022-10-14T12:39:44.529Z,70.80
2022-10-14T12:42:15.795Z,72.20
2022-10-14T12:44:48.697Z,72.80
2022-10-14T12:47:21.011Z,73.30
2022-10-14T12:49:53.192Z,73.70
2022-10-14T12:52:24.890Z,73.90
2022-10-14T12:54:55.069Z,74.30
2022-10-14T12:57:30.648Z,74.40
2022-10-14T13:00:01.590Z,74.70
2022-10-14T13:02:35.774Z,74.80
2022-10-14T13:05:07.687Z,74.80
2022-10-14T13:07:47.366Z,74.80
2022-10-14T13:10:47.373Z,75.00
2022-10-14T13:14:01.426Z,75.20
2022-10-14T13:17:05.812Z,75.10
2022-10-14T13:19:47.393Z,75.50
2022-10-14T13:22:43.875Z,75.40
2022-10-14T13:25:18.571Z,75.70
2022-10-14T13:28:04.727Z,75.80
2022-10-14T13:30:44.659Z,76.00
2022-10-14T13:33:19.603Z,76.30
2022-10-14T13:36:00.147Z,76.50
2022-10-14T13:38:29.563Z,76.70
2022-10-14T13:40:59.302Z,76.50
2022-10-14T13:43:30.577Z,76.70
2022-10-14T13:46:05.675Z,76.80
2022-10-14T13:48:35.973Z,76.70
2022-10-14T13:51:36.080Z,76.40
2022-10-14T13:54:19.228Z,76.10
2022-10-14T13:57:38.291Z,76.00
2022-10-14T14:02:39.365Z,75.70
2022-10-14T14:05:15.522Z,75.70
2022-10-14T14:08:45.743Z,75.50
2022-10-14T14:10:34.561Z,75.60
2022-10-14T14:13:07.324Z,75.50
2022-10-14T14:15:37.945Z,75.30
2022-10-14T14:18:06.373Z,75.40
2022-10-14T14:20:35.468Z,75.10
2022-10-14T14:23:05.271Z,75.20
2022-10-14T14:25:35.458Z,74.70
2022-10-14T14:28:07.081Z,74.00
2022-10-14T14:30:38.682Z,74.10
2022-10-14T14:33:12.117Z,73.60
2022-10-14T14:35:41.269Z,73.90
2022-10-14T14:38:28.390Z,73.00
2022-10-14T14:41:07.438Z,72.60
2022-10-14T14:43:40.849Z,72.70
2022-10-14T14:46:20.871Z,72.60
2022-10-14T14:48:54.789Z,72.30
2022-10-14T14:51:23.739Z,72.20
2022-10-14T14:53:54.928Z,72.00
2022-10-14T14:56:27.775Z,71.80
2022-10-14T14:58:59.150Z,71.90
2022-10-14T15:01:30.594Z,71.80
2022-10-14T15:04:13.243Z,71.90
2022-10-14T15:06:51.139Z,71.80
2022-10-14T15:09:23.947Z,71.70
2022-10-14T15:11:54.779Z,71.80
2022-10-14T15:14:33.297Z,71.60
2022-10-14T15:17:05.652Z,71.40
2022-10-14T15:19:38.799Z,71.40
2022-10-14T15:22:28.677Z,71.50
2022-10-14T15:25:00.598Z,70.90
2022-10-14T15:27:43.008Z,70.40
2022-10-14T15:30:51.886Z,70.10
2022-10-14T15:33:23.639Z,69.60
2022-10-14T15:35:57.331Z,69.40
2022-10-14T15:38:26.418Z,69.30
2022-10-14T15:40:54.945Z,69.40
2022-10-14T15:43:24.671Z,69.70
2022-10-14T15:46:09.232Z,69.40
2022-10-14T15:48:40.093Z,69.50
2022-10-14T15:51:08.223Z,69.70
2022-10-14T15:53:36.538Z,69.80
2022-10-14T15:56:04.721Z,70.20
2022-10-14T15:58:33.725Z,70.50
2022-10-14T16:01:02.313Z,70.70
2022-10-14T16:03:34.785Z,71.00
2022-10-14T16:06:07.442Z,71.60
2022-10-14T16:08:35.673Z,72.00
2022-10-14T16:11:05.591Z,72.30
2022-10-14T16:13:33.685Z,72.90
2022-10-14T16:16:04.466Z,73.10
2022-10-14T16:18:32.567Z,73.50
2022-10-14T16:21:00.619Z,73.80
2022-10-14T16:23:33.327Z,74.30
2022-10-14T16:26:01.976Z,74.60
2022-10-14T16:28:30.282Z,75.00
2022-10-14T16:31:00.963Z,75.30
2022-10-14T16:33:29.266Z,75.50
2022-10-14T16:36:00.435Z,75.70
2022-10-14T16:38:29.961Z,75.90
2022-10-14T16:40:59.000Z,76.10
2022-10-14T16:43:28.495Z,76.50
2022-10-14T16:45:59.743Z,76.80
2022-10-14T16:48:28.037Z,77.10
2022-10-14T16:50:56.506Z,77.30
2022-10-14T16:53:44.914Z,77.40
2022-10-14T16:56:33.748Z,77.70
2022-10-14T16:59:02.378Z,77.90
2022-10-14T17:01:31.674Z,78.10
2022-10-14T17:04:00.096Z,78.50
2022-10-14T17:06:28.634Z,78.70
2022-10-14T17:08:57.559Z,78.90
2022-10-14T17:11:29.285Z,79.00
2022-10-14T17:13:58.807Z,79.20
2022-10-14T17:16:28.508Z,79.40
2022-10-14T17:18:56.884Z,79.40
2022-10-14T17:21:26.733Z,79.50
2022-10-14T17:23:54.977Z,79.70
2022-10-14T17:26:23.343Z,79.90
2022-10-14T17:28:53.521Z,80.00
2022-10-14T17:31:22.768Z,80.20
2022-10-14T17:33:51.424Z,80.30
2022-10-14T17:36:21.358Z,80.50
2022-10-14T17:38:51.242Z,80.60
2022-10-14T17:41:20.631Z,80.60
2022-10-14T17:43:50.412Z,80.80
2022-10-14T17:46:23.474Z,80.90
2022-10-14T17:48:53.288Z,80.90
2022-10-14T17:51:25.428Z,81.00
2022-10-14T17:53:55.062Z,81.10
2022-10-14T17:56:23.290Z,81.20
2022-10-14T17:58:54.265Z,81.40
2022-10-14T18:01:37.023Z,81.40
2022-10-14T18:04:12.074Z,81.40
2022-10-14T18:06:47.531Z,81.50
2022-10-14T18:09:23.551Z,81.70
2022-10-14T18:12:09.258Z,81.80
2022-10-14T18:14:38.324Z,81.90
2022-10-14T18:17:08.349Z,82.00
2022-10-14T18:19:36.507Z,82.20
2022-10-14T18:22:06.700Z,82.30
2022-10-14T18:24:38.469Z,82.50
2022-10-14T18:27:07.013Z,82.60
2022-10-14T18:29:35.143Z,82.40
2022-10-14T18:32:03.285Z,82.60
2022-10-14T18:34:33.296Z,82.60
2022-10-14T18:37:01.400Z,82.60
2022-10-14T18:39:29.637Z,82.70
2022-10-14T18:41:57.727Z,82.80
2022-10-14T18:44:25.846Z,82.80
2022-10-14T18:46:54.084Z,82.90
2022-10-14T18:49:22.218Z,83.10
2022-10-14T18:51:53.174Z,83.10
2022-10-14T18:54:23.766Z,83.30
2022-10-14T18:56:52.702Z,83.20
2022-10-14T18:59:23.151Z,83.30
2022-10-14T19:01:53.468Z,83.20
2022-10-14T19:04:24.450Z,83.30
2022-10-14T19:06:54.334Z,83.50
2022-10-14T19:09:29.001Z,83.60
2022-10-14T19:11:59.006Z,83.50
2022-10-14T19:14:28.689Z,83.60
2022-10-14T19:16:56.998Z,83.60
2022-10-14T19:19:25.352Z,83.70
2022-10-14T19:21:56.360Z,83.90
2022-10-14T19:24:24.464Z,83.90
2022-10-14T19:26:54.220Z,84.00
2022-10-14T19:29:24.712Z,84.10
2022-10-14T19:31:54.525Z,83.80
2022-10-14T19:34:26.669Z,83.70
2022-10-14T19:36:56.526Z,83.80
2022-10-14T19:39:24.699Z,83.50
2022-10-14T19:41:52.790Z,83.30
2022-10-14T19:44:21.060Z,83.00
2022-10-14T19:46:49.246Z,83.00
2022-10-14T19:49:17.656Z,82.70
2022-10-14T19:51:45.748Z,82.60
2022-10-14T19:54:16.298Z,82.40
2022-10-14T19:56:44.536Z,82.30
2022-10-14T19:59:13.594Z,82.30
2022-10-14T20:01:42.065Z,82.20
2022-10-14T20:04:10.243Z,82.20
2022-10-14T20:06:40.021Z,82.30
2022-10-14T20:09:08.957Z,82.20
2022-10-14T20:11:38.454Z,82.40
2022-10-14T20:14:06.576Z,82.30
2022-10-14T20:16:35.019Z,82.40
2022-10-14T20:19:03.130Z,82.40
2022-10-14T20:21:31.753Z,82.50
2022-10-14T20:24:00.587Z,82.30
2022-10-14T20:26:28.886Z,82.40
2022-10-14T20:28:58.420Z,82.30
2022-10-14T20:31:26.651Z,82.30
2022-10-14T20:33:56.987Z,82.10
2022-10-14T20:36:25.242Z,82.10
2022-10-14T20:38:53.491Z,82.20
2022-10-14T20:41:22.991Z,82.10
2022-10-14T20:43:51.460Z,82.20
2022-10-14T20:46:21.882Z,82.50
2022-10-14T20:48:54.090Z,82.60
2022-10-14T20:51:22.819Z,82.60
2022-10-14T20:53:51.228Z,82.90
2022-10-14T20:56:19.506Z,83.00
2022-10-14T20:58:47.618Z,83.00
2022-10-14T21:01:17.965Z,83.20
2022-10-14T21:03:48.293Z,83.20
2022-10-14T21:06:18.286Z,83.50
2022-10-14T21:08:46.788Z,83.60
2022-10-14T21:11:17.056Z,83.90
2022-10-14T21:13:47.014Z,83.90
2022-10-14T21:16:17.289Z,84.20
2022-10-14T21:18:55.133Z,84.00
2022-10-14T21:21:26.887Z,83.80
2022-10-14T21:23:55.180Z,83.70
2022-10-14T21:26:23.574Z,83.80
2022-10-14T21:28:51.782Z,84.00
2022-10-14T21:31:20.449Z,84.10
2022-10-14T21:33:54.913Z,84.00
2022-10-14T21:36:23.053Z,84.10
2022-10-14T21:38:51.203Z,84.00
2022-10-14T21:41:19.443Z,84.00
2022-10-14T21:43:47.603Z,84.10
2022-10-14T21:46:17.077Z,84.00
2022-10-14T21:48:46.123Z,84.00
2022-10-14T21:51:17.668Z,84.00
2022-10-14T21:53:46.983Z,84.10
2022-10-14T21:56:16.766Z,84.10
2022-10-14T21:58:45.131Z,84.00
2022-10-14T22:01:16.116Z,84.00
2022-10-14T22:03:45.140Z,83.90
2022-10-14T22:06:17.304Z,84.00
2022-10-14T22:08:47.058Z,84.00
2022-10-14T22:11:19.754Z,84.10
2022-10-14T22:13:48.001Z,84.00
2022-10-14T22:16:17.858Z,84.00
2022-10-14T22:18:46.861Z,83.90
2022-10-14T22:21:17.908Z,84.10
2022-10-14T22:23:46.788Z,84.00
2022-10-14T22:26:17.014Z,84.20
2022-10-14T22:28:45.210Z,84.30
2022-10-14T22:31:15.835Z,84.40
2022-10-14T22:33:44.574Z,84.70
2022-10-14T22:36:18.191Z,84.80
2022-10-14T22:38:51.424Z,84.70
2022-10-14T22:41:20.052Z,84.80
2022-10-14T22:43:49.283Z,84.70
2022-10-14T22:46:19.638Z,85.00
2022-10-14T22:48:47.897Z,84.80
2022-10-14T22:51:18.158Z,84.90
2022-10-14T22:53:47.414Z,84.80
2022-10-14T22:56:22.129Z,84.90
2022-10-14T22:58:53.333Z,84.90
2022-10-14T23:01:22.555Z,84.90
2022-10-14T23:03:51.288Z,85.10
2022-10-14T23:06:19.443Z,85.00
2022-10-14T23:08:47.572Z,84.90
2022-10-14T23:11:18.620Z,85.00
2022-10-14T23:13:47.457Z,85.20
2022-10-14T23:16:17.609Z,85.10
2022-10-14T23:18:46.916Z,85.10
2022-10-14T23:21:17.642Z,85.10
2022-10-14T23:23:47.402Z,85.40
2022-10-14T23:26:18.840Z,85.20
2022-10-14T23:28:50.259Z,85.20
2022-10-14T23:31:20.718Z,85.00
2022-10-14T23:33:49.322Z,85.00
2022-10-14T23:36:17.453Z,84.70
2022-10-14T23:38:46.531Z,85.00
2022-10-14T23:41:16.817Z,85.00
2022-10-14T23:43:44.954Z,85.00
2022-10-14T23:46:13.064Z,85.20
2022-10-14T23:48:41.402Z,85.00
2022-10-14T23:51:09.871Z,85.10
2022-10-14T23:53:37.937Z,85.30
2022-10-14T23:56:06.806Z,85.30
2022-10-14T23:58:36.343Z,85.30
